createdAt,value
2023-08-15T00:02:25.200Z,5.53
2023-08-15T00:04:54.957Z,5.50
2023-08-15T00:07:22.798Z,4.90
2023-08-15T00:09:50.522Z,5.50
2023-08-15T00:12:18.245Z,5.03
2023-08-15T00:14:46.027Z,4.30
2023-08-15T00:17:14.112Z,5.10
2023-08-15T00:19:42.336Z,4.97
2023-08-15T00:22:11.365Z,5.55
2023-08-15T00:24:39.697Z,4.88
2023-08-15T00:27:07.829Z,5.03
2023-08-15T00:29:35.873Z,4.65
2023-08-15T00:32:04.448Z,5.40
2023-08-15T00:34:32.113Z,5.40
2023-08-15T00:36:59.881Z,5.18
2023-08-15T00:39:29.648Z,4.90
2023-08-15T00:41:57.644Z,5.50
2023-08-15T00:44:25.410Z,4.70
2023-08-15T00:46:53.212Z,4.90
2023-08-15T00:49:21.653Z,5.30
2023-08-15T00:51:51.339Z,4.45
2023-08-15T00:54:19.419Z,5.20
2023-08-15T00:56:49.148Z,5.15
2023-08-15T00:59:46.864Z,5.03
2023-08-15T01:02:14.844Z,5.03
2023-08-15T01:04:43.168Z,5.30
2023-08-15T01:07:11.189Z,4.85
2023-08-15T01:09:39.114Z,6.03
2023-08-15T01:12:13.794Z,5.28
2023-08-15T01:14:44.114Z,5.03
2023-08-15T01:17:14.891Z,4.70
2023-08-15T01:19:45.087Z,5.50
2023-08-15T01:22:16.086Z,5.78
2023-08-15T01:24:45.910Z,6.55
2023-08-15T01:27:13.805Z,6.85
2023-08-15T01:29:41.846Z,6.55
2023-08-15T01:32:13.824Z,6.70
2023-08-15T01:34:44.652Z,6.18
2023-08-15T01:37:19.433Z,6.40
2023-08-15T01:39:49.921Z,5.95
2023-08-15T01:42:18.222Z,5.65
2023-08-15T01:44:46.558Z,5.65
2023-08-15T01:47:14.393Z,6.25
2023-08-15T01:49:42.247Z,6.55
2023-08-15T01:52:10.338Z,5.82
2023-08-15T01:54:38.053Z,5.25
2023-08-15T01:57:07.255Z,5.70
2023-08-15T01:59:35.036Z,5.53
2023-08-15T02:02:07.327Z,6.18
2023-08-15T02:04:35.113Z,5.85
2023-08-15T02:07:03.319Z,6.63
2023-08-15T02:09:31.129Z,6.78
2023-08-15T02:11:58.951Z,6.82
2023-08-15T02:14:28.942Z,6.13
2023-08-15T02:16:57.078Z,6.40
2023-08-15T02:19:25.120Z,6.68
2023-08-15T02:21:53.262Z,5.93
2023-08-15T02:24:30.958Z,6.43
2023-08-15T02:26:59.874Z,6.82
2023-08-15T02:29:29.199Z,6.22
2023-08-15T02:31:57.542Z,7.50
2023-08-15T02:34:26.893Z,6.88
2023-08-15T02:36:54.645Z,7.55
2023-08-15T02:39:22.361Z,6.35
2023-08-15T02:41:50.563Z,7.32
2023-08-15T02:44:18.465Z,6.68
2023-08-15T02:46:47.484Z,5.82
2023-08-15T02:49:15.105Z,6.68
2023-08-15T02:51:42.900Z,7.90
2023-08-15T02:54:10.799Z,6.97
2023-08-15T02:56:39.082Z,7.25
2023-08-15T02:59:07.030Z,8.07
2023-08-15T03:01:35.398Z,7.22
2023-08-15T03:04:04.547Z,7.78
2023-08-15T03:06:32.264Z,7.88
2023-08-15T03:09:00.575Z,7.00
2023-08-15T03:11:28.933Z,7.25
2023-08-15T03:13:56.822Z,7.18
2023-08-15T03:16:24.607Z,7.28
2023-08-15T03:18:52.513Z,6.90
2023-08-15T03:21:21.592Z,6.85
2023-08-15T03:23:49.567Z,6.80
2023-08-15T03:26:17.370Z,6.90
2023-08-15T03:28:46.444Z,7.07
2023-08-15T03:31:14.578Z,6.50
2023-08-15T03:33:47.436Z,6.55
2023-08-15T03:36:15.215Z,6.82
2023-08-15T03:38:44.297Z,6.43
2023-08-15T03:41:12.552Z,7.13
2023-08-15T03:43:40.316Z,6.30
2023-08-15T03:46:09.320Z,6.13
2023-08-15T03:48:37.965Z,6.15
2023-08-15T03:51:06.204Z,6.90
2023-08-15T03:53:33.949Z,7.28
2023-08-15T03:56:05.158Z,7.28
2023-08-15T03:58:33.885Z,7.25
2023-08-15T04:01:02.571Z,7.57
2023-08-15T04:03:31.137Z,6.97
2023-08-15T04:05:58.939Z,7.40
2023-08-15T04:08:26.579Z,6.65
2023-08-15T04:10:56.072Z,7.35
2023-08-15T04:13:25.273Z,6.88
2023-08-15T04:15:53.445Z,7.35
2023-08-15T04:18:21.291Z,7.15
2023-08-15T04:20:49.304Z,7.63
2023-08-15T04:23:17.072Z,7.63
2023-08-15T04:25:45.301Z,7.25
2023-08-15T04:28:13.073Z,7.45
2023-08-15T04:30:42.273Z,7.15
2023-08-15T04:33:10.645Z,7.50
2023-08-15T04:35:40.795Z,7.35
2023-08-15T04:38:08.892Z,7.45
2023-08-15T04:40:39.111Z,7.05
2023-08-15T04:43:06.894Z,7.72
2023-08-15T04:45:34.677Z,7.53
2023-08-15T04:48:04.112Z,7.63
2023-08-15T04:50:31.829Z,7.40
2023-08-15T04:52:59.604Z,7.72
2023-08-15T04:55:27.442Z,6.97
2023-08-15T04:57:55.057Z,7.20
2023-08-15T05:00:22.909Z,7.10
2023-08-15T05:02:50.717Z,6.82
2023-08-15T05:05:20.040Z,6.70
2023-08-15T05:07:47.943Z,7.25
2023-08-15T05:10:15.948Z,6.75
2023-08-15T05:12:45.300Z,7.03
2023-08-15T05:15:13.681Z,6.25
2023-08-15T05:17:41.361Z,7.35
2023-08-15T05:20:10.946Z,6.78
2023-08-15T05:22:40.160Z,6.90
2023-08-15T05:25:08.371Z,7.28
2023-08-15T05:27:42.458Z,6.95
2023-08-15T05:30:11.056Z,7.00
2023-08-15T05:32:39.733Z,7.70
2023-08-15T05:35:07.749Z,6.95
2023-08-15T05:37:35.753Z,7.10
2023-08-15T05:40:05.709Z,7.20
2023-08-15T05:42:33.729Z,7.32
2023-08-15T05:45:01.748Z,7.35
2023-08-15T05:47:29.519Z,7.40
2023-08-15T05:49:57.140Z,7.30
2023-08-15T05:52:24.929Z,7.18
2023-08-15T05:54:52.568Z,6.68
2023-08-15T05:57:21.716Z,6.25
2023-08-15T05:59:49.634Z,6.53
2023-08-15T06:02:18.185Z,6.28
2023-08-15T06:04:45.941Z,6.55
2023-08-15T06:07:13.992Z,6.90
2023-08-15T06:09:42.084Z,5.80
2023-08-15T06:12:10.347Z,6.60
2023-08-15T06:14:41.202Z,6.70
2023-08-15T06:17:08.996Z,6.03
2023-08-15T06:19:36.714Z,6.68
2023-08-15T06:22:06.796Z,7.05
2023-08-15T06:24:35.477Z,7.10
2023-08-15T06:27:04.245Z,5.78
2023-08-15T06:32:01.353Z,6.97
2023-08-15T06:34:29.292Z,6.75
2023-08-15T06:36:56.974Z,6.75
2023-08-15T06:39:24.663Z,6.65
2023-08-15T06:41:52.446Z,6.07
2023-08-15T06:44:20.154Z,6.72
2023-08-15T06:46:48.072Z,6.53
2023-08-15T06:49:17.245Z,6.30
2023-08-15T06:51:44.972Z,6.85
2023-08-15T06:54:12.699Z,6.93
2023-08-15T06:56:40.605Z,6.75
2023-08-15T06:59:09.237Z,6.38
2023-08-15T07:01:36.842Z,6.20
2023-08-15T07:04:05.584Z,6.15
2023-08-15T07:06:35.326Z,6.47
2023-08-15T07:09:03.962Z,6.38
2023-08-15T07:11:32.120Z,6.90
2023-08-15T07:13:59.940Z,7.00
2023-08-15T07:16:27.602Z,6.70
2023-08-15T07:18:55.259Z,7.03
2023-08-15T07:21:26.867Z,6.45
2023-08-15T07:23:57.096Z,6.53
2023-08-15T07:26:24.947Z,6.20
2023-08-15T07:28:52.602Z,7.10
2023-08-15T07:31:20.762Z,5.90
2023-08-15T07:33:48.497Z,6.20
2023-08-15T07:36:16.332Z,6.78
2023-08-15T07:38:44.409Z,7.15
2023-08-15T07:41:13.584Z,6.78
2023-08-15T07:43:41.255Z,5.85
2023-08-15T07:46:09.104Z,6.78
2023-08-15T07:48:36.779Z,6.40
2023-08-15T07:51:04.556Z,6.28
2023-08-15T07:53:32.439Z,5.63
2023-08-15T07:56:00.218Z,5.68
2023-08-15T07:58:29.524Z,5.45
2023-08-15T08:00:57.465Z,5.57
2023-08-15T08:03:25.128Z,5.97
2023-08-15T08:05:52.937Z,5.93
2023-08-15T08:08:20.717Z,5.70
2023-08-15T08:10:48.388Z,5.63
2023-08-15T08:13:20.364Z,6.07
2023-08-15T08:15:49.760Z,5.60
2023-08-15T08:18:17.545Z,5.80
2023-08-15T08:20:45.469Z,6.35
2023-08-15T08:23:14.036Z,6.55
2023-08-15T08:25:42.424Z,6.75
2023-08-15T08:28:10.152Z,6.95
2023-08-15T08:30:38.145Z,7.18
2023-08-15T08:33:07.397Z,7.10
2023-08-15T08:35:35.236Z,8.02
2023-08-15T08:38:03.146Z,7.80
2023-08-15T08:40:30.809Z,8.32
2023-08-15T08:42:59.028Z,8.48
2023-08-15T08:45:28.516Z,8.60
2023-08-15T08:47:56.252Z,9.05
2023-08-15T08:50:25.994Z,10.25
2023-08-15T08:52:54.400Z,9.95
2023-08-15T08:55:22.600Z,10.50
2023-08-15T08:57:51.740Z,10.68
2023-08-15T09:00:21.747Z,9.95
2023-08-15T09:02:49.432Z,10.52
2023-08-15T09:05:17.714Z,10.70
2023-08-15T09:07:46.940Z,10.60
2023-08-15T09:10:14.614Z,11.30
2023-08-15T09:12:43.795Z,10.70
2023-08-15T09:15:15.492Z,11.93
2023-08-15T09:17:44.813Z,11.10
2023-08-15T09:20:14.957Z,11.05
2023-08-15T09:22:45.370Z,11.73
2023-08-15T09:25:16.273Z,11.90
2023-08-15T09:27:44.747Z,11.55
2023-08-15T09:30:13.774Z,11.93
2023-08-15T09:32:42.575Z,12.15
2023-08-15T09:35:11.225Z,10.70
2023-08-15T09:37:42.841Z,10.38
2023-08-15T09:40:13.636Z,8.10
2023-08-15T09:42:42.863Z,7.25
2023-08-15T09:45:10.969Z,6.22
2023-08-15T09:47:39.172Z,6.43
2023-08-15T09:50:07.889Z,5.90
2023-08-15T09:52:36.520Z,5.47
2023-08-15T09:55:04.333Z,5.10
2023-08-15T09:57:32.295Z,5.32
2023-08-15T10:00:01.603Z,5.43
2023-08-15T10:02:30.464Z,5.18
2023-08-15T10:05:01.272Z,5.13
2023-08-15T10:07:29.545Z,4.90
2023-08-15T10:09:59.046Z,5.60
2023-08-15T10:12:27.926Z,6.18
2023-08-15T10:14:57.063Z,6.57
2023-08-15T10:17:27.567Z,5.32
2023-08-15T10:19:56.610Z,6.05
2023-08-15T10:22:24.833Z,5.70
2023-08-15T10:24:53.155Z,5.40
2023-08-15T10:27:22.417Z,5.05
2023-08-15T10:29:55.159Z,7.20
2023-08-15T10:32:29.164Z,6.25
2023-08-15T10:34:59.919Z,6.40
2023-08-15T10:37:28.671Z,5.97
2023-08-15T10:40:10.126Z,6.75
2023-08-15T10:42:59.023Z,6.30
2023-08-15T10:45:26.899Z,7.05
2023-08-15T10:47:58.766Z,6.28
2023-08-15T10:50:26.579Z,6.97
2023-08-15T10:52:58.923Z,6.68
2023-08-15T10:55:28.455Z,6.43
2023-08-15T10:57:56.594Z,7.25
2023-08-15T11:00:24.638Z,6.32
2023-08-15T11:02:53.245Z,6.28
2023-08-15T11:05:22.414Z,5.93
2023-08-15T11:07:50.066Z,6.28
2023-08-15T11:10:17.730Z,7.05
2023-08-15T11:12:49.621Z,6.50
2023-08-15T11:15:17.883Z,6.00
2023-08-15T11:17:48.894Z,6.57
2023-08-15T11:20:16.551Z,6.45
2023-08-15T11:22:56.281Z,5.85
2023-08-15T11:25:23.913Z,5.95
2023-08-15T11:27:52.540Z,6.70
2023-08-15T11:30:21.284Z,5.95
2023-08-15T11:32:48.909Z,6.25
2023-08-15T11:35:18.202Z,6.25
2023-08-15T11:37:47.777Z,5.75
2023-08-15T11:40:15.951Z,5.82
2023-08-15T11:42:42.702Z,6.57
2023-08-15T11:45:11.416Z,6.60
2023-08-15T11:47:53.181Z,7.57
2023-08-15T11:50:27.392Z,8.23
2023-08-15T11:53:09.272Z,9.27
2023-08-15T11:55:37.584Z,9.45
2023-08-15T11:58:05.561Z,10.68
2023-08-15T12:00:33.621Z,11.00
2023-08-15T12:03:01.395Z,11.60
2023-08-15T12:05:29.042Z,12.40
2023-08-15T12:07:59.891Z,14.32
2023-08-15T12:10:29.164Z,15.80
2023-08-15T12:12:56.926Z,15.45
2023-08-15T12:15:24.832Z,14.70
2023-08-15T12:17:53.067Z,15.18
2023-08-15T12:20:20.924Z,14.45
2023-08-15T12:22:48.645Z,14.38
2023-08-15T12:25:16.354Z,13.82
2023-08-15T12:27:45.677Z,12.45
2023-08-15T12:30:16.586Z,12.45
2023-08-15T12:32:45.817Z,11.77
2023-08-15T12:35:13.768Z,11.57
2023-08-15T12:37:41.907Z,10.90
2023-08-15T12:40:18.357Z,9.05
2023-08-15T12:42:58.549Z,8.32
2023-08-15T12:45:26.821Z,7.78
2023-08-15T12:47:55.559Z,8.65
2023-08-15T12:50:24.326Z,7.88
2023-08-15T12:52:52.037Z,7.68
2023-08-15T12:55:20.137Z,6.40
2023-08-15T12:57:47.784Z,8.50
2023-08-15T13:00:18.333Z,7.20
2023-08-15T13:02:46.389Z,6.45
2023-08-15T13:05:14.136Z,5.40
2023-08-15T13:07:42.020Z,4.32
2023-08-15T13:10:09.884Z,4.97
2023-08-15T13:12:38.228Z,4.30
2023-08-15T13:15:07.346Z,4.20
2023-08-15T13:17:36.364Z,4.80
2023-08-15T13:20:04.102Z,4.55
2023-08-15T13:22:32.383Z,4.78
2023-08-15T13:25:00.273Z,4.38
2023-08-15T13:27:27.961Z,4.03
2023-08-15T13:29:55.896Z,5.88
2023-08-15T13:32:24.432Z,6.43
2023-08-15T13:34:54.011Z,5.38
2023-08-15T13:37:22.499Z,5.97
2023-08-15T13:39:50.370Z,5.07
2023-08-15T13:42:30.797Z,5.43
2023-08-15T13:45:06.243Z,4.97
2023-08-15T13:47:37.535Z,4.95
2023-08-15T13:50:07.989Z,4.50
2023-08-15T13:52:37.219Z,5.15
2023-08-15T13:55:05.643Z,4.53
2023-08-15T13:57:33.959Z,4.28
2023-08-15T14:00:02.557Z,3.75
2023-08-15T14:02:35.501Z,4.50
2023-08-15T14:05:04.904Z,4.20
2023-08-15T14:07:34.441Z,4.25
2023-08-15T14:10:02.296Z,4.57
2023-08-15T14:12:30.592Z,4.03
2023-08-15T14:14:58.288Z,4.40
2023-08-15T14:17:25.940Z,4.05
2023-08-15T14:19:53.852Z,4.53
2023-08-15T14:22:21.804Z,4.35
2023-08-15T14:24:51.063Z,3.85
2023-08-15T14:27:20.878Z,3.30
2023-08-15T14:29:49.616Z,3.35
2023-08-15T14:32:17.212Z,3.80
2023-08-15T14:34:45.040Z,3.20
2023-08-15T14:37:13.280Z,3.55
2023-08-15T14:39:40.901Z,3.38
2023-08-15T14:42:09.970Z,3.42
2023-08-15T14:44:38.179Z,3.58
2023-08-15T14:47:06.007Z,3.05
2023-08-15T14:49:34.273Z,3.60
2023-08-15T14:52:02.787Z,3.28
2023-08-15T14:54:30.904Z,3.42
2023-08-15T14:56:59.165Z,4.30
2023-08-15T14:59:28.144Z,3.30
2023-08-15T15:01:55.997Z,3.58
2023-08-15T15:04:24.094Z,3.17
2023-08-15T15:06:51.857Z,3.50
2023-08-15T15:09:19.604Z,4.10
2023-08-15T15:11:47.224Z,3.72
2023-08-15T15:14:15.419Z,3.63
2023-08-15T15:16:45.839Z,3.30
2023-08-15T15:19:14.271Z,3.60
2023-08-15T15:21:42.122Z,3.53
2023-08-15T15:24:09.872Z,3.33
2023-08-15T15:26:37.525Z,3.30
2023-08-15T15:29:06.089Z,3.25
2023-08-15T15:31:33.778Z,2.85
2023-08-15T15:34:02.743Z,3.55
2023-08-15T15:36:30.624Z,3.17
2023-08-15T15:38:58.634Z,3.33
2023-08-15T15:41:26.620Z,3.95
2023-08-15T15:43:54.559Z,3.70
2023-08-15T15:46:22.373Z,3.60
2023-08-15T15:48:50.245Z,4.30
2023-08-15T15:51:20.246Z,3.78
2023-08-15T15:53:47.872Z,3.53
2023-08-15T15:56:15.509Z,3.40
2023-08-15T15:58:43.368Z,3.80
2023-08-15T16:01:11.881Z,2.58
2023-08-15T16:03:39.994Z,3.45
2023-08-15T16:06:07.666Z,3.22
2023-08-15T16:08:36.666Z,3.30
2023-08-15T16:11:04.843Z,3.22
2023-08-15T16:13:32.473Z,3.15
2023-08-15T16:16:00.267Z,3.45
2023-08-15T16:18:27.900Z,3.80
2023-08-15T16:20:55.957Z,3.45
2023-08-15T16:23:23.931Z,3.30
2023-08-15T16:25:53.477Z,3.58
2023-08-15T16:28:21.861Z,3.17
2023-08-15T16:30:49.644Z,3.28
2023-08-15T16:33:17.271Z,3.30
2023-08-15T16:35:45.027Z,3.60
2023-08-15T16:38:14.939Z,2.80
2023-08-15T16:40:43.597Z,3.13
2023-08-15T16:43:14.230Z,3.08
2023-08-15T16:45:42.029Z,3.20
2023-08-15T16:48:10.164Z,3.13
2023-08-15T16:50:38.190Z,3.05
2023-08-15T16:53:06.348Z,3.40
2023-08-15T16:55:34.662Z,2.80
2023-08-15T16:58:02.530Z,3.20
2023-08-15T17:00:31.927Z,3.30
2023-08-15T17:02:59.825Z,3.00
2023-08-15T17:05:27.592Z,2.90
2023-08-15T17:07:56.076Z,3.00
2023-08-15T17:10:24.092Z,2.83
2023-08-15T17:12:52.386Z,2.60
2023-08-15T17:15:20.266Z,3.10
2023-08-15T17:17:49.259Z,3.03
2023-08-15T17:20:16.960Z,2.58
2023-08-15T17:22:46.098Z,2.58
2023-08-15T17:25:13.902Z,2.58
2023-08-15T17:27:41.514Z,2.60
2023-08-15T17:30:09.529Z,2.38
2023-08-15T17:32:37.318Z,2.55
2023-08-15T17:35:06.993Z,2.30
2023-08-15T17:37:34.943Z,2.90
2023-08-15T17:40:02.914Z,2.50
2023-08-15T17:42:30.835Z,2.58
2023-08-15T17:44:58.737Z,2.50
2023-08-15T17:47:26.398Z,2.78
2023-08-15T17:49:54.449Z,2.20
2023-08-15T17:52:24.221Z,2.60
2023-08-15T17:54:52.292Z,2.28
2023-08-15T17:57:20.523Z,2.25
2023-08-15T17:59:48.207Z,2.30
2023-08-15T18:02:15.915Z,2.58
2023-08-15T18:04:43.607Z,2.28
2023-08-15T18:07:11.420Z,2.20
2023-08-15T18:09:40.882Z,2.45
2023-08-15T18:12:09.349Z,2.25
2023-08-15T18:14:37.078Z,2.30
2023-08-15T18:17:05.095Z,2.85
2023-08-15T18:19:32.704Z,2.28
2023-08-15T18:22:00.846Z,2.80
2023-08-15T18:24:28.635Z,2.25
2023-08-15T18:26:57.734Z,2.60
2023-08-15T18:29:27.303Z,2.65
2023-08-15T18:31:55.191Z,2.47
2023-08-15T18:34:23.213Z,2.40
2023-08-15T18:36:51.078Z,2.30
2023-08-15T18:39:19.177Z,2.40
2023-08-15T18:41:47.063Z,2.55
2023-08-15T18:44:16.610Z,2.33
2023-08-15T18:46:47.517Z,2.58
2023-08-15T18:49:15.495Z,2.20
2023-08-15T18:51:43.621Z,2.35
2023-08-15T18:54:11.241Z,2.25
2023-08-15T18:56:38.936Z,2.40
2023-08-15T18:59:06.634Z,2.50
2023-08-15T19:01:35.990Z,2.38
2023-08-15T19:04:04.263Z,2.38
2023-08-15T19:06:32.540Z,2.22
2023-08-15T19:09:01.684Z,2.40
2023-08-15T19:11:38.479Z,2.50
2023-08-15T19:14:06.494Z,2.10
2023-08-15T19:16:36.818Z,2.40
2023-08-15T19:19:05.606Z,3.95
2023-08-15T19:21:33.320Z,2.80
2023-08-15T19:24:01.316Z,2.45
2023-08-15T19:26:28.954Z,2.33
2023-08-15T19:28:56.843Z,2.10
2023-08-15T19:31:24.498Z,2.30
2023-08-15T19:33:54.194Z,2.25
2023-08-15T19:36:21.978Z,2.17
2023-08-15T19:38:49.679Z,2.90
2023-08-15T19:41:17.500Z,2.47
2023-08-15T19:43:45.325Z,2.20
2023-08-15T19:46:13.074Z,2.20
2023-08-15T19:48:40.693Z,2.55
2023-08-15T19:51:09.849Z,2.20
2023-08-15T19:53:37.512Z,2.00
2023-08-15T19:56:05.370Z,2.20
2023-08-15T19:58:33.217Z,2.15
2023-08-15T20:01:00.859Z,2.10
2023-08-15T20:03:28.562Z,2.20
2023-08-15T20:05:56.353Z,2.20
2023-08-15T20:08:25.528Z,2.78
2023-08-15T20:10:53.726Z,2.30
2023-08-15T20:13:23.186Z,1.92
2023-08-15T20:15:51.208Z,2.10
2023-08-15T20:18:19.246Z,2.00
2023-08-15T20:20:47.385Z,2.30
2023-08-15T20:23:16.389Z,2.30
2023-08-15T20:25:45.663Z,1.80
2023-08-15T20:28:14.657Z,2.10
2023-08-15T20:30:42.515Z,2.40
2023-08-15T20:33:10.264Z,2.28
2023-08-15T20:35:38.002Z,2.20
2023-08-15T20:38:07.383Z,2.25
2023-08-15T20:40:35.066Z,2.17
2023-08-15T20:43:04.130Z,2.20
2023-08-15T20:45:31.833Z,2.10
2023-08-15T20:47:59.556Z,1.90
2023-08-15T20:50:27.659Z,2.20
2023-08-15T20:52:57.447Z,2.17
2023-08-15T20:55:25.240Z,2.20
2023-08-15T20:57:52.930Z,2.45
2023-08-15T21:00:22.579Z,2.13
2023-08-15T21:02:50.418Z,2.15
2023-08-15T21:05:18.398Z,2.10
2023-08-15T21:07:46.509Z,2.00
2023-08-15T21:10:14.163Z,2.05
2023-08-15T21:12:43.339Z,1.90
2023-08-15T21:15:11.409Z,2.47
2023-08-15T21:17:40.519Z,2.33
2023-08-15T21:20:09.481Z,2.25
2023-08-15T21:22:37.553Z,1.98
2023-08-15T21:25:05.388Z,2.10
2023-08-15T21:27:33.038Z,1.83
2023-08-15T21:30:00.873Z,1.83
2023-08-15T21:32:28.527Z,1.83
2023-08-15T21:34:57.774Z,2.17
2023-08-15T21:37:25.866Z,2.10
2023-08-15T21:39:54.235Z,1.90
2023-08-15T21:42:21.952Z,2.00
2023-08-15T21:44:49.677Z,2.00
2023-08-15T21:47:17.469Z,2.22
2023-08-15T21:49:45.174Z,2.10
2023-08-15T21:52:14.828Z,2.10
2023-08-15T21:54:43.161Z,2.20
2023-08-15T21:57:11.530Z,2.10
2023-08-15T21:59:39.131Z,2.15
2023-08-15T22:02:06.781Z,2.03
2023-08-15T22:04:34.713Z,1.95
2023-08-15T22:07:02.527Z,2.40
2023-08-15T22:09:32.117Z,2.38
2023-08-15T22:11:59.766Z,2.20
2023-08-15T22:14:27.541Z,1.80
2023-08-15T22:16:55.265Z,2.13
2023-08-15T22:19:23.338Z,2.80
2023-08-15T22:21:51.065Z,2.60
2023-08-15T22:24:18.768Z,2.45
2023-08-15T22:26:49.526Z,2.45
2023-08-15T22:29:17.334Z,2.40
2023-08-15T22:31:45.609Z,2.53
2023-08-15T22:34:15.125Z,2.65
2023-08-15T22:36:43.461Z,2.63
2023-08-15T22:39:11.160Z,2.45
2023-08-15T22:41:38.986Z,2.58
2023-08-15T22:44:09.778Z,2.97
2023-08-15T22:46:38.353Z,2.70
2023-08-15T22:49:06.067Z,2.55
2023-08-15T22:51:33.726Z,2.95
2023-08-15T22:54:01.589Z,3.00
2023-08-15T22:56:29.430Z,3.25
2023-08-15T22:58:57.178Z,3.28
2023-08-15T23:01:26.345Z,4.13
2023-08-15T23:03:54.293Z,3.53
2023-08-15T23:06:22.048Z,3.42
2023-08-15T23:08:50.038Z,3.25
2023-08-15T23:11:18.882Z,3.30
2023-08-15T23:13:46.820Z,3.03
2023-08-15T23:16:14.590Z,3.33
2023-08-15T23:18:43.614Z,3.00
2023-08-15T23:21:11.581Z,3.40
2023-08-15T23:23:39.461Z,2.92
2023-08-15T23:26:07.432Z,3.53
2023-08-15T23:28:35.075Z,2.75
2023-08-15T23:31:02.888Z,2.90
2023-08-15T23:33:30.938Z,2.58
2023-08-15T23:35:59.969Z,2.90
2023-08-15T23:38:27.742Z,2.97
2023-08-15T23:40:55.489Z,2.80
2023-08-15T23:43:24.178Z,2.65
2023-08-15T23:45:52.132Z,3.08
2023-08-15T23:48:19.790Z,2.58
2023-08-15T23:50:47.972Z,2.80
2023-08-15T23:53:17.070Z,3.10
2023-08-15T23:55:44.871Z,2.90
2023-08-15T23:58:12.876Z,3.28
